createdAt,value
2023-11-19T00:00:53.554Z,11.00
2023-11-19T00:01:48.297Z,10.97
2023-11-19T00:02:47.285Z,11.04
2023-11-19T00:03:48.912Z,11.00
2023-11-19T00:04:47.218Z,10.97
2023-11-19T00:05:47.125Z,11.09
2023-11-19T00:06:47.102Z,11.02
2023-11-19T00:07:47.140Z,11.06
2023-11-19T00:08:47.091Z,11.15
2023-11-19T00:09:47.060Z,11.10
2023-11-19T00:10:47.106Z,11.14
2023-11-19T00:11:54.455Z,11.09
2023-11-19T00:12:48.117Z,11.10
2023-11-19T00:13:47.039Z,11.17
2023-11-19T00:14:47.020Z,11.15
2023-11-19T00:15:47.039Z,11.10
2023-11-19T00:16:47.018Z,11.11
2023-11-19T00:17:47.322Z,11.14
2023-11-19T00:18:47.007Z,11.18
2023-11-19T00:19:46.962Z,11.18
2023-11-19T00:20:46.956Z,11.15
2023-11-19T00:21:46.969Z,11.17
2023-11-19T00:22:50.355Z,11.10
2023-11-19T00:23:46.918Z,11.18
2023-11-19T00:24:46.948Z,11.15
2023-11-19T00:25:46.924Z,11.14
2023-11-19T00:26:46.890Z,11.15
2023-11-19T00:27:46.872Z,11.10
2023-11-19T00:28:46.987Z,11.10
2023-11-19T00:29:46.866Z,11.04
2023-11-19T00:30:46.866Z,11.14
2023-11-19T00:31:46.947Z,11.07
2023-11-19T00:32:46.930Z,11.07
2023-11-19T00:34:46.816Z,11.07
2023-11-19T00:35:46.787Z,11.11
2023-11-19T00:36:46.807Z,11.09
2023-11-19T00:37:47.149Z,11.14
2023-11-19T00:38:46.764Z,11.09
2023-11-19T00:39:46.779Z,11.09
2023-11-19T00:40:46.749Z,11.17
2023-11-19T00:41:46.743Z,11.15
2023-11-19T00:42:46.747Z,11.03
2023-11-19T00:43:46.707Z,11.10
2023-11-19T00:45:46.680Z,11.22
2023-11-19T00:46:46.704Z,11.25
2023-11-19T00:47:46.707Z,11.17
2023-11-19T00:48:46.657Z,11.15
2023-11-19T00:49:46.628Z,11.19
2023-11-19T00:50:46.697Z,11.14
2023-11-19T00:51:46.641Z,11.21
2023-11-19T00:52:46.615Z,11.19
2023-11-19T00:53:46.622Z,11.18
2023-11-19T00:54:46.583Z,11.17
2023-11-19T00:55:47.341Z,11.25
2023-11-19T00:56:46.589Z,11.27
2023-11-19T00:57:46.559Z,11.32
2023-11-19T00:58:46.541Z,11.24
2023-11-19T00:59:46.531Z,11.17
2023-11-19T01:00:46.551Z,11.28
2023-11-19T01:01:46.534Z,11.29
2023-11-19T01:02:46.618Z,11.32
2023-11-19T01:03:46.588Z,11.32
2023-11-19T01:04:46.637Z,11.27
2023-11-19T01:05:46.510Z,11.40
2023-11-19T01:06:49.572Z,11.37
2023-11-19T01:07:46.446Z,11.46
2023-11-19T01:08:46.459Z,11.40
2023-11-19T01:09:46.422Z,11.36
2023-11-19T01:10:46.437Z,11.43
2023-11-19T01:11:46.399Z,11.44
2023-11-19T01:12:46.397Z,11.42
2023-11-19T01:13:46.403Z,11.46
2023-11-19T01:14:46.375Z,11.40
2023-11-19T01:15:46.397Z,11.44
2023-11-19T01:16:46.451Z,11.42
2023-11-19T01:18:46.453Z,11.46
2023-11-19T01:19:46.329Z,11.47
2023-11-19T01:20:46.320Z,11.40
2023-11-19T01:21:46.295Z,11.46
2023-11-19T01:22:46.291Z,11.43
2023-11-19T01:23:46.300Z,11.43
2023-11-19T01:24:46.254Z,11.37
2023-11-19T01:25:46.247Z,11.43
2023-11-19T01:26:46.498Z,11.40
2023-11-19T01:27:46.223Z,11.44
2023-11-19T01:29:46.204Z,11.44
2023-11-19T01:30:46.226Z,11.44
2023-11-19T01:31:46.182Z,11.44
2023-11-19T01:32:46.251Z,11.42
2023-11-19T01:33:46.207Z,11.49
2023-11-19T01:34:46.243Z,11.46
2023-11-19T01:35:46.153Z,11.49
2023-11-19T01:36:46.133Z,11.52
2023-11-19T01:37:46.144Z,11.46
2023-11-19T01:38:46.121Z,11.46
2023-11-19T01:39:46.119Z,11.51
2023-11-19T01:40:46.124Z,11.49
2023-11-19T01:41:46.109Z,11.51
2023-11-19T01:42:46.200Z,11.51
2023-11-19T01:43:46.060Z,11.47
2023-11-19T01:44:46.043Z,11.51
2023-11-19T01:45:46.114Z,11.61
2023-11-19T01:46:46.031Z,11.61
2023-11-19T01:47:46.081Z,11.57
2023-11-19T01:48:46.022Z,11.62
2023-11-19T01:49:46.017Z,11.60
2023-11-19T01:50:45.980Z,11.64
2023-11-19T01:51:45.958Z,11.52
2023-11-19T01:52:45.980Z,11.64
2023-11-19T01:53:45.961Z,11.64
2023-11-19T01:54:45.935Z,11.65
2023-11-19T01:55:45.926Z,11.67
2023-11-19T01:56:45.923Z,11.75
2023-11-19T01:57:45.893Z,11.65
2023-11-19T01:58:45.896Z,11.65
2023-11-19T01:59:45.909Z,11.72
2023-11-19T02:00:45.870Z,11.72
2023-11-19T02:01:45.928Z,11.70
2023-11-19T02:02:46.207Z,11.69
2023-11-19T02:03:46.016Z,11.70
2023-11-19T02:04:45.946Z,11.73
2023-11-19T02:05:45.812Z,11.70
2023-11-19T02:06:45.802Z,11.67
2023-11-19T02:07:45.792Z,11.65
2023-11-19T02:08:45.810Z,11.58
2023-11-19T02:09:45.772Z,11.51
2023-11-19T02:10:45.773Z,11.72
2023-11-19T02:11:45.751Z,11.73
2023-11-19T02:12:45.786Z,11.70
2023-11-19T02:13:45.733Z,11.64
2023-11-19T02:14:45.763Z,11.78
2023-11-19T02:15:45.732Z,11.69
2023-11-19T02:16:45.767Z,11.65
2023-11-19T02:17:45.713Z,11.70
2023-11-19T02:18:45.669Z,11.69
2023-11-19T02:19:45.669Z,11.62
2023-11-19T02:20:45.676Z,11.69
2023-11-19T02:21:45.653Z,11.72
2023-11-19T02:22:45.860Z,11.69
2023-11-19T02:23:45.615Z,11.83
2023-11-19T02:24:45.616Z,11.75
2023-11-19T02:25:45.597Z,11.80
2023-11-19T02:26:45.599Z,11.76
2023-11-19T02:27:45.601Z,11.80
2023-11-19T02:28:45.619Z,11.82
2023-11-19T02:29:45.588Z,11.82
2023-11-19T02:30:45.572Z,11.76
2023-11-19T02:31:45.563Z,11.76
2023-11-19T02:32:45.557Z,11.86
2023-11-19T02:33:45.522Z,11.85
2023-11-19T02:34:45.536Z,11.86
2023-11-19T02:35:45.495Z,11.82
2023-11-19T02:36:45.494Z,11.85
2023-11-19T02:37:45.472Z,11.76
2023-11-19T02:38:45.487Z,11.88
2023-11-19T02:39:45.463Z,11.76
2023-11-19T02:40:45.438Z,11.80
2023-11-19T02:41:45.421Z,11.75
2023-11-19T02:42:45.414Z,11.61
2023-11-19T02:43:45.398Z,11.69
2023-11-19T02:44:45.418Z,11.72
2023-11-19T02:45:45.399Z,11.70
2023-11-19T02:46:45.427Z,11.64
2023-11-19T02:47:45.413Z,11.70
2023-11-19T02:48:45.354Z,11.64
2023-11-19T02:49:45.330Z,11.65
2023-11-19T02:50:45.325Z,11.72
2023-11-19T02:51:45.318Z,11.72
2023-11-19T02:52:45.317Z,11.76
2023-11-19T02:53:45.312Z,11.73
2023-11-19T02:54:45.285Z,11.73
2023-11-19T02:55:45.268Z,11.69
2023-11-19T02:56:45.270Z,11.67
2023-11-19T02:57:45.280Z,11.73
2023-11-19T02:58:45.238Z,11.69
2023-11-19T02:59:45.226Z,11.67
2023-11-19T03:00:45.316Z,11.69
2023-11-19T03:01:45.360Z,11.67
2023-11-19T03:02:45.320Z,11.75
2023-11-19T03:03:45.272Z,11.64
2023-11-19T03:04:45.289Z,11.65
2023-11-19T03:05:45.161Z,11.51
2023-11-19T03:06:45.156Z,11.55
2023-11-19T03:07:45.146Z,11.52
2023-11-19T03:08:45.150Z,11.49
2023-11-19T03:09:45.147Z,11.54
2023-11-19T03:10:45.111Z,11.49
2023-11-19T03:11:45.101Z,11.49
2023-11-19T03:12:45.090Z,11.51
2023-11-19T03:13:45.076Z,11.51
2023-11-19T03:14:45.089Z,11.46
2023-11-19T03:15:45.075Z,11.47
2023-11-19T03:16:45.134Z,11.52
2023-11-19T03:17:45.044Z,11.52
2023-11-19T03:18:45.056Z,11.54
2023-11-19T03:19:45.048Z,11.52
2023-11-19T03:20:45.012Z,11.49
2023-11-19T03:21:44.998Z,11.55
2023-11-19T03:22:45.008Z,11.54
2023-11-19T03:23:44.994Z,11.60
2023-11-19T03:24:44.975Z,11.62
2023-11-19T03:25:44.958Z,11.67
2023-11-19T03:26:44.934Z,11.64
2023-11-19T03:27:44.931Z,11.60
2023-11-19T03:28:44.933Z,11.58
2023-11-19T03:29:44.904Z,11.69
2023-11-19T03:30:44.886Z,11.62
2023-11-19T03:31:44.923Z,11.61
2023-11-19T03:32:44.917Z,11.61
2023-11-19T03:33:44.900Z,11.64
2023-11-19T03:34:44.903Z,11.64
2023-11-19T03:35:44.840Z,11.54
2023-11-19T03:36:44.828Z,11.52
2023-11-19T03:37:44.844Z,11.52
2023-11-19T03:38:44.816Z,11.49
2023-11-19T03:39:44.798Z,11.42
2023-11-19T03:40:44.846Z,11.42
2023-11-19T03:41:44.784Z,11.32
2023-11-19T03:42:44.832Z,11.25
2023-11-19T03:43:44.756Z,11.24
2023-11-19T03:44:44.748Z,11.18
2023-11-19T03:45:44.768Z,11.19
2023-11-19T03:46:44.867Z,11.17
2023-11-19T03:47:44.739Z,11.25
2023-11-19T03:48:44.697Z,11.06
2023-11-19T03:49:44.718Z,11.11
2023-11-19T03:50:44.751Z,11.10
2023-11-19T03:51:44.687Z,11.03
2023-11-19T03:52:45.023Z,11.09
2023-11-19T03:53:44.650Z,11.03
2023-11-19T03:54:44.634Z,11.03
2023-11-19T03:55:44.632Z,11.04
2023-11-19T03:56:44.628Z,10.92
2023-11-19T03:57:44.608Z,10.94
2023-11-19T03:58:44.613Z,10.85
2023-11-19T03:59:44.596Z,10.91
2023-11-19T04:00:44.576Z,10.92
2023-11-19T04:01:44.598Z,11.04
2023-11-19T04:02:44.576Z,11.11
2023-11-19T04:04:44.581Z,11.15
2023-11-19T04:05:44.524Z,11.14
2023-11-19T04:06:44.551Z,11.17
2023-11-19T04:07:44.493Z,11.11
2023-11-19T04:08:44.480Z,11.33
2023-11-19T04:09:44.482Z,11.29
2023-11-19T04:10:44.468Z,11.42
2023-11-19T04:11:44.459Z,11.33
2023-11-19T04:12:44.503Z,11.35
2023-11-19T04:13:44.428Z,11.46
2023-11-19T04:14:44.415Z,11.44
2023-11-19T04:15:44.415Z,11.44
2023-11-19T04:16:44.458Z,11.39
2023-11-19T04:17:44.432Z,11.44
2023-11-19T04:18:44.397Z,11.49
2023-11-19T04:19:44.517Z,11.46
2023-11-19T04:20:44.382Z,11.51
2023-11-19T04:21:44.346Z,11.46
2023-11-19T04:22:44.328Z,11.49
2023-11-19T04:23:44.323Z,11.46
2023-11-19T04:24:44.323Z,11.54
2023-11-19T04:25:44.331Z,11.46
2023-11-19T04:26:44.287Z,11.47
2023-11-19T04:27:44.279Z,11.47
2023-11-19T04:28:44.291Z,11.46
2023-11-19T04:29:44.264Z,11.43
2023-11-19T04:30:44.291Z,11.40
2023-11-19T04:31:44.296Z,11.43
2023-11-19T04:32:44.253Z,11.39
2023-11-19T04:33:44.234Z,11.35
2023-11-19T04:34:44.219Z,11.40
2023-11-19T04:35:44.222Z,11.40
2023-11-19T04:36:44.203Z,11.39
2023-11-19T04:37:44.240Z,11.43
2023-11-19T04:38:44.164Z,11.37
2023-11-19T04:39:44.209Z,11.40
2023-11-19T04:40:44.212Z,11.35
2023-11-19T04:41:44.170Z,11.14
2023-11-19T04:42:44.120Z,11.18
2023-11-19T04:43:44.133Z,11.18
2023-11-19T04:44:44.106Z,11.19
2023-11-19T04:45:44.097Z,11.21
2023-11-19T04:46:44.133Z,11.14
2023-11-19T04:47:44.095Z,11.17
2023-11-19T04:48:44.059Z,11.19
2023-11-19T04:49:44.112Z,11.17
2023-11-19T04:50:44.041Z,11.10
2023-11-19T04:51:44.024Z,11.21
2023-11-19T04:52:44.014Z,11.09
2023-11-19T04:53:44.005Z,11.11
2023-11-19T04:54:44.016Z,11.15
2023-11-19T04:55:51.080Z,11.03
2023-11-19T04:56:43.967Z,11.03
2023-11-19T04:57:43.993Z,11.02
2023-11-19T04:58:43.947Z,11.00
2023-11-19T04:59:43.936Z,10.94
2023-11-19T05:00:43.945Z,11.00
2023-11-19T05:01:43.930Z,10.91
2023-11-19T05:02:43.993Z,10.84
2023-11-19T05:03:43.996Z,10.82
2023-11-19T05:04:43.932Z,10.70
2023-11-19T05:05:43.869Z,10.76
2023-11-19T05:06:43.863Z,10.67
2023-11-19T05:07:43.922Z,10.68
2023-11-19T05:08:43.851Z,10.71
2023-11-19T05:09:43.830Z,10.64
2023-11-19T05:10:43.873Z,10.64
2023-11-19T05:12:43.817Z,10.70
2023-11-19T05:13:43.806Z,10.66
2023-11-19T05:14:43.768Z,10.61
2023-11-19T05:15:43.760Z,10.61
2023-11-19T05:16:43.957Z,10.61
2023-11-19T05:17:43.792Z,10.64
2023-11-19T05:18:44.442Z,10.59
2023-11-19T05:19:43.732Z,10.51
2023-11-19T05:20:43.709Z,10.60
2023-11-19T05:21:43.699Z,10.55
2023-11-19T05:22:43.678Z,10.51
2023-11-19T05:23:43.696Z,10.55
2023-11-19T05:24:43.657Z,10.48
2023-11-19T05:25:43.688Z,10.48
2023-11-19T05:26:43.659Z,10.44
2023-11-19T05:27:43.658Z,10.40
2023-11-19T05:28:43.613Z,10.36
2023-11-19T05:29:43.606Z,10.34
2023-11-19T05:30:43.634Z,10.42
2023-11-19T05:31:45.214Z,10.36
2023-11-19T05:32:43.591Z,10.33
2023-11-19T05:33:43.618Z,10.45
2023-11-19T05:35:43.551Z,10.34
2023-11-19T05:36:43.524Z,10.34
2023-11-19T05:37:43.561Z,10.40
2023-11-19T05:38:43.514Z,10.41
2023-11-19T05:39:43.526Z,10.44
2023-11-19T05:40:43.526Z,10.36
2023-11-19T05:41:43.494Z,10.40
2023-11-19T05:42:43.479Z,10.32
2023-11-19T05:43:43.509Z,10.41
2023-11-19T05:44:43.448Z,10.47
2023-11-19T05:45:43.439Z,10.44
2023-11-19T05:46:43.514Z,10.44
2023-11-19T05:47:43.538Z,10.38
2023-11-19T05:48:43.418Z,10.33
2023-11-19T05:49:43.432Z,10.40
2023-11-19T05:50:43.405Z,10.41
2023-11-19T05:51:43.375Z,10.45
2023-11-19T05:52:43.424Z,10.45
2023-11-19T05:53:43.366Z,10.42
2023-11-19T05:54:43.333Z,10.47
2023-11-19T05:55:43.364Z,10.41
2023-11-19T05:56:43.313Z,10.38
2023-11-19T05:58:43.311Z,10.55
2023-11-19T05:59:43.292Z,10.67
2023-11-19T06:00:43.289Z,10.63
2023-11-19T06:01:43.396Z,10.64
2023-11-19T06:02:43.248Z,10.76
2023-11-19T06:03:43.325Z,10.71
2023-11-19T06:04:43.256Z,10.79
2023-11-19T06:05:43.231Z,10.79
2023-11-19T06:06:43.225Z,10.85
2023-11-19T06:07:43.242Z,10.97
2023-11-19T06:08:43.199Z,10.91
2023-11-19T06:09:43.176Z,10.88
2023-11-19T06:10:43.163Z,10.97
2023-11-19T06:11:43.167Z,10.92
2023-11-19T06:12:43.141Z,11.02
2023-11-19T06:13:43.195Z,11.03
2023-11-19T06:14:43.120Z,11.00
2023-11-19T06:15:43.112Z,10.92
2023-11-19T06:16:43.203Z,10.99
2023-11-19T06:17:43.198Z,10.97
2023-11-19T06:18:43.211Z,10.94
2023-11-19T06:19:43.087Z,10.89
2023-11-19T06:20:43.881Z,10.92
2023-11-19T06:21:43.066Z,10.89
2023-11-19T06:22:43.064Z,10.86
2023-11-19T06:23:43.017Z,10.91
2023-11-19T06:24:43.023Z,10.86
2023-11-19T06:25:43.096Z,10.73
2023-11-19T06:26:43.022Z,10.76
2023-11-19T06:27:43.003Z,10.68
2023-11-19T06:28:43.030Z,10.73
2023-11-19T06:29:42.967Z,10.67
2023-11-19T06:30:43.391Z,10.66
2023-11-19T06:31:42.953Z,10.55
2023-11-19T06:32:42.993Z,10.53
2023-11-19T06:33:42.966Z,10.52
2023-11-19T06:34:42.961Z,10.48
2023-11-19T06:35:42.924Z,10.53
2023-11-19T06:36:42.918Z,10.42
2023-11-19T06:37:42.925Z,10.42
2023-11-19T06:38:42.863Z,10.40
2023-11-19T06:39:42.861Z,10.45
2023-11-19T06:40:42.879Z,10.36
2023-11-19T06:41:42.831Z,10.38
2023-11-19T06:42:42.818Z,10.47
2023-11-19T06:43:43.324Z,10.59
2023-11-19T06:44:42.812Z,10.63
2023-11-19T06:45:42.801Z,10.79
2023-11-19T06:46:42.840Z,10.78
2023-11-19T06:47:42.782Z,10.94
2023-11-19T06:48:42.755Z,10.94
2023-11-19T06:49:42.744Z,11.00
2023-11-19T06:50:42.744Z,11.00
2023-11-19T06:51:42.718Z,11.02
2023-11-19T06:52:49.818Z,11.04
2023-11-19T06:53:42.709Z,11.17
2023-11-19T06:54:42.689Z,11.24
2023-11-19T06:55:42.724Z,11.19
2023-11-19T06:56:42.721Z,11.27
2023-11-19T06:57:42.660Z,11.35
2023-11-19T06:58:42.641Z,11.37
2023-11-19T06:59:42.658Z,11.28
2023-11-19T07:00:42.671Z,11.35
2023-11-19T07:01:42.607Z,11.39
2023-11-19T07:02:42.718Z,11.28
2023-11-19T07:03:42.761Z,11.32
2023-11-19T07:04:42.582Z,11.43
2023-11-19T07:05:42.591Z,11.37
2023-11-19T07:06:42.603Z,11.37
2023-11-19T07:07:42.596Z,11.39
2023-11-19T07:08:42.551Z,11.24
2023-11-19T07:09:42.557Z,11.39
2023-11-19T07:10:42.533Z,11.22
2023-11-19T07:11:42.590Z,11.21
2023-11-19T07:12:42.499Z,11.24
2023-11-19T07:13:42.618Z,11.25
2023-11-19T07:14:42.532Z,11.15
2023-11-19T07:15:42.524Z,11.11
2023-11-19T07:16:42.488Z,11.00
2023-11-19T07:17:42.943Z,10.96
2023-11-19T07:18:42.476Z,11.03
2023-11-19T07:19:42.422Z,10.91
2023-11-19T07:20:42.433Z,10.94
2023-11-19T07:21:42.399Z,10.94
2023-11-19T07:22:42.408Z,10.84
2023-11-19T07:23:42.430Z,10.89
2023-11-19T07:24:42.387Z,10.89
2023-11-19T07:25:42.361Z,10.92
2023-11-19T07:26:42.354Z,11.02
2023-11-19T07:27:42.333Z,10.99
2023-11-19T07:28:42.338Z,10.99
2023-11-19T07:29:42.361Z,11.02
2023-11-19T07:30:42.298Z,10.97
2023-11-19T07:31:42.288Z,11.02
2023-11-19T07:32:42.361Z,10.96
2023-11-19T07:33:42.288Z,10.96
2023-11-19T07:34:42.275Z,10.96
2023-11-19T07:35:42.278Z,10.97
2023-11-19T07:36:42.260Z,10.91
2023-11-19T07:37:42.219Z,11.03
2023-11-19T07:38:42.235Z,10.97
2023-11-19T07:39:42.565Z,10.99
2023-11-19T07:40:56.636Z,11.06
2023-11-19T07:41:43.233Z,10.97
2023-11-19T07:42:42.175Z,10.99
2023-11-19T07:43:42.160Z,10.99
2023-11-19T07:44:42.252Z,10.99
2023-11-19T07:45:42.130Z,11.07
2023-11-19T07:46:42.130Z,11.11
2023-11-19T07:47:42.219Z,11.02
2023-11-19T07:48:42.113Z,11.11
2023-11-19T07:49:43.774Z,11.03
2023-11-19T07:50:42.110Z,11.18
2023-11-19T07:51:42.080Z,11.28
2023-11-19T07:52:42.057Z,11.22
2023-11-19T07:53:42.084Z,11.17
2023-11-19T07:54:42.038Z,11.15
2023-11-19T07:55:42.818Z,11.28
2023-11-19T07:56:42.168Z,11.32
2023-11-19T07:57:42.005Z,11.35
2023-11-19T07:58:42.004Z,11.35
2023-11-19T07:59:42.019Z,11.25
2023-11-19T08:00:41.999Z,11.24
2023-11-19T08:01:41.967Z,11.32
2023-11-19T08:02:42.070Z,11.29
2023-11-19T08:04:43.015Z,11.40
2023-11-19T08:05:41.975Z,11.42
2023-11-19T08:06:41.972Z,11.40
2023-11-19T08:07:41.925Z,11.40
2023-11-19T08:08:41.914Z,11.49
2023-11-19T08:09:41.884Z,11.52
2023-11-19T08:10:41.867Z,11.67
2023-11-19T08:11:41.860Z,11.69
2023-11-19T08:12:41.871Z,11.86
2023-11-19T08:13:41.862Z,12.07
2023-11-19T08:14:41.905Z,12.09
2023-11-19T08:15:41.806Z,12.14
2023-11-19T08:16:41.804Z,12.31
2023-11-19T08:17:41.887Z,12.37
2023-11-19T08:18:41.798Z,12.47
2023-11-19T08:19:41.768Z,12.60
2023-11-19T08:20:41.827Z,12.67
2023-11-19T08:21:41.792Z,12.82
2023-11-19T08:22:41.762Z,12.85
2023-11-19T08:23:41.810Z,12.95
2023-11-19T08:24:41.774Z,12.97
2023-11-19T08:25:41.704Z,12.97
2023-11-19T08:26:41.762Z,13.11
2023-11-19T08:27:41.686Z,13.01
2023-11-19T08:28:41.690Z,13.04
2023-11-19T08:29:41.689Z,13.07
2023-11-19T08:30:41.678Z,13.25
2023-11-19T08:31:41.642Z,13.29
2023-11-19T08:32:41.659Z,13.30
2023-11-19T08:33:41.655Z,13.44
2023-11-19T08:34:41.607Z,13.30
2023-11-19T08:35:41.611Z,13.42
2023-11-19T08:36:41.616Z,13.52
2023-11-19T08:37:41.575Z,13.55
2023-11-19T08:38:41.567Z,13.52
2023-11-19T08:39:41.573Z,13.51
2023-11-19T08:40:41.548Z,13.60
2023-11-19T08:41:41.538Z,13.62
2023-11-19T08:42:41.561Z,13.69
2023-11-19T08:43:41.508Z,13.55
2023-11-19T08:44:41.546Z,13.64
2023-11-19T08:45:41.555Z,13.62
2023-11-19T08:46:41.472Z,13.66
2023-11-19T08:47:41.728Z,13.59
2023-11-19T08:48:41.454Z,13.78
2023-11-19T08:49:41.445Z,13.77
2023-11-19T08:50:41.478Z,13.77
2023-11-19T08:51:41.417Z,13.84
2023-11-19T08:52:41.448Z,13.66
2023-11-19T08:53:41.450Z,13.75
2023-11-19T08:54:41.390Z,13.63
2023-11-19T08:55:41.420Z,13.63
2023-11-19T08:56:41.433Z,13.51
2023-11-19T08:57:41.385Z,13.49
2023-11-19T08:58:41.446Z,13.54
2023-11-19T08:59:41.418Z,13.45
2023-11-19T09:00:41.373Z,13.42
2023-11-19T09:01:41.416Z,13.42
2023-11-19T09:02:41.425Z,13.44
2023-11-19T09:03:41.478Z,13.45
2023-11-19T09:04:41.370Z,13.41
2023-11-19T09:05:41.328Z,13.33
2023-11-19T09:06:41.322Z,13.26
2023-11-19T09:07:41.276Z,13.22
2023-11-19T09:08:41.282Z,13.22
2023-11-19T09:09:41.227Z,13.29
2023-11-19T09:10:41.217Z,13.32
2023-11-19T09:11:41.264Z,13.33
2023-11-19T09:12:41.266Z,13.38
2023-11-19T09:13:41.219Z,13.48
2023-11-19T09:14:41.195Z,13.45
2023-11-19T09:15:41.184Z,13.46
2023-11-19T09:16:41.204Z,13.57
2023-11-19T09:17:41.198Z,13.63
2023-11-19T09:18:41.138Z,13.73
2023-11-19T09:19:41.138Z,13.89
2023-11-19T09:20:41.173Z,13.84
2023-11-19T09:21:41.105Z,13.92
2023-11-19T09:22:41.090Z,14.02
2023-11-19T09:23:41.127Z,14.10
2023-11-19T09:24:41.108Z,14.20
2023-11-19T09:26:41.164Z,14.40
2023-11-19T09:27:41.040Z,14.40
2023-11-19T09:28:41.024Z,14.47
2023-11-19T09:29:41.034Z,14.57
2023-11-19T09:30:41.030Z,14.72
2023-11-19T09:31:41.013Z,14.80
2023-11-19T09:32:41.250Z,14.83
2023-11-19T09:33:41.070Z,14.83
2023-11-19T09:34:40.966Z,14.78
2023-11-19T09:35:40.989Z,14.73
2023-11-19T09:36:40.948Z,14.83
2023-11-19T09:37:40.935Z,14.95
2023-11-19T09:38:40.939Z,14.99
2023-11-19T09:39:40.931Z,15.10
2023-11-19T09:40:40.900Z,15.14
2023-11-19T09:41:40.940Z,15.23
2023-11-19T09:42:40.897Z,15.19
2023-11-19T09:43:40.856Z,14.99
2023-11-19T09:44:40.928Z,14.95
2023-11-19T09:45:40.849Z,15.01
2023-11-19T09:46:40.840Z,15.09
2023-11-19T09:47:40.850Z,15.11
2023-11-19T09:48:40.846Z,15.25
2023-11-19T09:49:40.807Z,15.25
2023-11-19T09:50:40.846Z,15.28
2023-11-19T09:51:40.793Z,15.36
2023-11-19T09:52:40.790Z,15.46
2023-11-19T09:53:40.784Z,15.35
2023-11-19T09:54:40.765Z,15.44
2023-11-19T09:55:40.748Z,15.36
2023-11-19T09:56:40.742Z,15.25
2023-11-19T09:57:40.722Z,15.23
2023-11-19T09:58:40.708Z,15.31
2023-11-19T09:59:40.724Z,15.19
2023-11-19T10:00:40.693Z,15.32
2023-11-19T10:01:40.688Z,15.25
2023-11-19T10:02:40.887Z,15.20
2023-11-19T10:03:40.778Z,15.09
2023-11-19T10:04:40.745Z,15.03
2023-11-19T10:05:40.643Z,14.99
2023-11-19T10:06:40.639Z,15.06
2023-11-19T10:07:40.606Z,15.01
2023-11-19T10:08:40.650Z,14.98
2023-11-19T10:09:40.570Z,14.99
2023-11-19T10:10:40.559Z,14.98
2023-11-19T10:11:40.567Z,15.02
2023-11-19T10:12:57.485Z,15.02
2023-11-19T10:13:41.539Z,14.99
2023-11-19T10:14:40.600Z,15.07
2023-11-19T10:15:40.529Z,15.06
2023-11-19T10:16:40.501Z,15.01
2023-11-19T10:17:40.566Z,14.96
2023-11-19T10:18:41.227Z,14.86
2023-11-19T10:19:40.498Z,14.91
2023-11-19T10:20:40.514Z,14.88
2023-11-19T10:21:40.451Z,14.99
2023-11-19T10:22:40.446Z,14.88
2023-11-19T10:23:40.442Z,14.78
2023-11-19T10:24:43.606Z,14.72
2023-11-19T10:25:41.431Z,14.55
2023-11-19T10:26:40.424Z,14.58
2023-11-19T10:27:40.380Z,14.51
2023-11-19T10:28:40.393Z,14.42
2023-11-19T10:29:40.441Z,14.45
2023-11-19T10:30:40.383Z,14.50
2023-11-19T10:31:40.373Z,14.43
2023-11-19T10:32:40.413Z,14.29
2023-11-19T10:33:40.395Z,14.39
2023-11-19T10:34:40.329Z,14.42
2023-11-19T10:35:40.340Z,14.33
2023-11-19T10:36:40.329Z,14.24
2023-11-19T10:37:40.310Z,14.32
2023-11-19T10:38:40.318Z,14.36
2023-11-19T10:39:40.246Z,14.36
2023-11-19T10:40:40.268Z,14.37
2023-11-19T10:41:40.332Z,14.29
2023-11-19T10:42:40.230Z,14.37
2023-11-19T10:43:40.255Z,14.46
2023-11-19T10:44:40.247Z,14.45
2023-11-19T10:45:40.196Z,14.46
2023-11-19T10:46:40.384Z,14.51
2023-11-19T10:47:41.979Z,14.68
2023-11-19T10:48:40.216Z,14.81
2023-11-19T10:49:40.182Z,14.84
2023-11-19T10:50:40.186Z,14.94
2023-11-19T10:51:40.128Z,14.95
2023-11-19T10:52:40.139Z,14.92
2023-11-19T10:53:40.297Z,15.10
2023-11-19T10:54:40.096Z,15.17
2023-11-19T10:55:40.121Z,15.20
2023-11-19T10:56:40.185Z,15.23
2023-11-19T10:57:40.057Z,15.09
2023-11-19T10:58:40.045Z,15.27
2023-11-19T10:59:40.095Z,15.28
2023-11-19T11:00:40.045Z,15.46
2023-11-19T11:01:40.064Z,15.35
2023-11-19T11:02:40.119Z,15.29
2023-11-19T11:03:40.153Z,15.23
2023-11-19T11:04:40.039Z,15.21
2023-11-19T11:05:40.077Z,15.27
2023-11-19T11:06:39.963Z,15.27
2023-11-19T11:07:41.643Z,15.23
2023-11-19T11:08:40.004Z,15.25
2023-11-19T11:09:40.153Z,15.21
2023-11-19T11:10:56.570Z,15.13
2023-11-19T11:11:40.900Z,15.16
2023-11-19T11:12:40.027Z,15.21
2023-11-19T11:13:39.930Z,15.13
2023-11-19T11:14:39.876Z,15.21
2023-11-19T11:15:39.935Z,15.09
2023-11-19T11:16:39.959Z,15.01
2023-11-19T11:17:40.048Z,14.95
2023-11-19T11:18:40.564Z,14.95
2023-11-19T11:19:39.963Z,14.83
2023-11-19T11:20:39.902Z,14.86
2023-11-19T11:21:39.882Z,14.80
2023-11-19T11:22:40.751Z,14.83
2023-11-19T11:23:39.772Z,14.70
2023-11-19T11:24:39.868Z,14.73
2023-11-19T11:25:39.762Z,14.57
2023-11-19T11:26:39.824Z,14.61
2023-11-19T11:27:39.792Z,14.58
2023-11-19T11:28:39.790Z,14.57
2023-11-19T11:29:39.716Z,14.64
2023-11-19T11:30:39.746Z,14.57
2023-11-19T11:31:39.745Z,14.58
2023-11-19T11:32:39.856Z,14.54
2023-11-19T11:33:39.730Z,14.51
2023-11-19T11:34:39.656Z,14.47
2023-11-19T11:35:39.643Z,14.54
2023-11-19T11:36:39.677Z,14.45
2023-11-19T11:37:39.631Z,14.51
2023-11-19T11:38:39.653Z,14.42
2023-11-19T11:39:39.639Z,14.39
2023-11-19T11:40:39.613Z,14.35
2023-11-19T11:41:39.585Z,14.39
2023-11-19T11:42:39.659Z,14.32
2023-11-19T11:43:39.595Z,14.29
2023-11-19T11:44:39.552Z,14.24
2023-11-19T11:45:39.770Z,14.22
2023-11-19T11:46:39.691Z,14.25
2023-11-19T11:47:39.521Z,14.33
2023-11-19T11:48:39.535Z,14.25
2023-11-19T11:49:39.527Z,14.22
2023-11-19T11:50:39.491Z,14.29
2023-11-19T11:51:39.504Z,14.33
2023-11-19T11:52:39.460Z,14.15
2023-11-19T11:53:39.449Z,14.18
2023-11-19T11:54:39.441Z,14.17
2023-11-19T11:55:39.447Z,14.14
2023-11-19T11:56:39.436Z,14.07
2023-11-19T11:57:39.425Z,14.09
2023-11-19T11:58:39.402Z,14.07
2023-11-19T11:59:39.431Z,14.12
2023-11-19T12:00:39.406Z,14.07
2023-11-19T12:01:39.384Z,14.03
2023-11-19T12:02:39.365Z,13.92
2023-11-19T12:03:39.721Z,13.91
2023-11-19T12:04:39.413Z,13.89
2023-11-19T12:05:39.385Z,13.77
2023-11-19T12:06:39.314Z,13.57
2023-11-19T12:07:39.327Z,13.60
2023-11-19T12:09:39.338Z,13.54
2023-11-19T12:10:39.260Z,13.49
2023-11-19T12:11:39.247Z,13.46
2023-11-19T12:12:39.519Z,13.44
2023-11-19T12:13:39.257Z,13.44
2023-11-19T12:14:39.220Z,13.44
2023-11-19T12:15:39.251Z,13.39
2023-11-19T12:16:39.261Z,13.42
2023-11-19T12:17:39.202Z,13.38
2023-11-19T12:18:39.209Z,13.39
2023-11-19T12:19:39.182Z,13.41
2023-11-19T12:20:39.205Z,13.42
2023-11-19T12:21:39.381Z,13.36
2023-11-19T12:22:39.154Z,13.39
2023-11-19T12:23:39.152Z,13.42
2023-11-19T12:24:39.132Z,13.38
2023-11-19T12:25:39.136Z,13.39
2023-11-19T12:26:39.126Z,13.48
2023-11-19T12:27:39.104Z,13.48
2023-11-19T12:28:39.087Z,13.45
2023-11-19T12:29:39.062Z,13.39
2023-11-19T12:30:39.103Z,13.48
2023-11-19T12:31:39.431Z,13.52
2023-11-19T12:32:39.079Z,13.54
2023-11-19T12:33:39.148Z,13.45
2023-11-19T12:34:39.002Z,13.46
2023-11-19T12:35:38.991Z,13.55
2023-11-19T12:36:38.993Z,13.54
2023-11-19T12:37:38.968Z,13.55
2023-11-19T12:38:38.973Z,13.54
2023-11-19T12:39:39.000Z,13.49
2023-11-19T12:40:38.934Z,13.49
2023-11-19T12:41:38.927Z,13.52
2023-11-19T12:42:38.961Z,13.54
2023-11-19T12:44:38.979Z,13.49
2023-11-19T12:45:38.910Z,13.67
2023-11-19T12:46:38.926Z,13.59
2023-11-19T12:47:38.919Z,13.67
2023-11-19T12:48:38.920Z,13.64
2023-11-19T12:49:38.843Z,13.60
2023-11-19T12:50:38.819Z,13.60
2023-11-19T12:51:38.860Z,13.54
2023-11-19T12:52:38.807Z,13.49
2023-11-19T12:53:47.543Z,13.41
2023-11-19T12:54:38.882Z,13.52
2023-11-19T12:55:38.783Z,13.54
2023-11-19T12:56:38.764Z,13.46
2023-11-19T12:57:38.773Z,13.39
2023-11-19T12:58:38.756Z,13.46
2023-11-19T12:59:38.724Z,13.25
2023-11-19T13:00:38.787Z,13.10
2023-11-19T13:01:38.748Z,13.07
2023-11-19T13:02:38.751Z,12.95
2023-11-19T13:03:38.778Z,13.00
2023-11-19T13:04:38.683Z,12.93